Terminal Aerodrome Forecast
Issued by NWS Caribou, ME

Home | Current Version | Previous Version | Text Only | Print | Product List | Glossary On
Versions: 1 2 3 4 5 6 7 8 9 10 11 12
000
FTUS41 KCAR 232324
TAFBGR
TAF
KBGR 232324Z 2400/2424 29005KT P6SM SCT120
     FM240700 32005KT 3SM BR SCT010
     FM240900 32004KT 1SM BR SCT004
     FM241100 32006KT P6SM SKC=

USA.gov is the U.S. government's official web portal to all federal, state and local government web resources and services.